Chino, CA (91710)

4:58 PM PST on February 10, 2016 (GMT -0800)
North Central Chino | | Change Station
CLOSE
Current Station
Personal Weather Station
Location: Chino, CA
Elevation: 732 ft
Nearby Weather Stations

Elev 732 ft 34.01 °N, 117.67 °W | Updated 13 seconds ago

Partly Cloudy
Partly Cloudy
87.4 °F
Feels Like 84 °F
N
0.0
Wind Variable Wind from SW
Gusts 7.0 mph

Today
High -- | Low -- °F
--% Chance of Precip.
Yesterday
High -- | Low -- °F
Precip. -- in
Pressure 30.07 in
Visibility 10.0 miles
Clouds Few 18000 ft
Heat Index 84 °F
Dew Point 46 °F
Humidity 24%
Rainfall 0.00 in
Snow Depth Not available.
6:40 AM 5:29 PM
Waxing Crescent, 8% visible
METAR KCNO 110053Z 23006KT 10SM FEW180 26/06 A3008 RMK AO2 SLP182 T02610056
Pressure 30.07 in
Visibility 10.0 miles
Clouds Few 18000 ft
Heat Index 84 °F
Dew Point 46 °F
Humidity 24%
Rainfall 0.00 in
Snow Depth Not available.
6:40 AM 5:29 PM
Waxing Crescent, 8% visible
METAR KCNO 110053Z 23006KT 10SM FEW180 26/06 A3008 RMK AO2 SLP182 T02610056

10-Day Weather Forecast

Almanac

Astronomy

Feb. 10, 2016 Rise Set
Actual Time
Civil Twilight
Nautical Twilight
Astronomical Twilight
Moon
Length of Visible Light
Length of Day
Tomorrow will be .
, % of the Moon is Illuminated

Today's Extremes

State Highs State Lows

Community

WunderPhotos

Upload Photos

1,891,948 photos uploaded!

WunderBlog® & News

Nearby

Air Quality

  Air Quality AQ Index Pollutant
Not available.

Snow Depth

Station Depth Elevation

Earthquake Activity

City Distance Mag. Time & Date
Minimum magnitude displayed is 2.5.

Coastal Water Temperatures

Place Temperature

Stations

Nearby Weather Stations

Station Location Temp. Windchill Dew Point Humidity Wind Precip. Elev Updated Type
                   

Watches & Warnings

There are currently no watches in effect.